Create Tblcommutelog Verified Points Advance Search
| # | Trip ID | Id Commuter | Trip Date | Trip Num | Current Lat | Current Lng | Delta Distance | Current Time | Activity | Activity Confidence | Current Speed | |
|---|---|---|---|---|---|---|---|---|---|---|---|---|
| 71401 | 260108_758203_16624675_1652 | 758203 | (not set) | (not set) | 38.886207589117 | -77.021560641766 | 0 | 2026-01-08 16:52:21 | on_foot | 100 | -0.44703925898772 | |
| 71402 | 260108_758203_16624675_1652 | 758203 | (not set) | (not set) | 38.886207589118 | -77.021560641765 | 0 | 2026-01-08 16:52:28 | on_foot | 100 | -0.44703925898772 | |
| 71403 | 260108_789714_6455647_1648 | 789714 | (not set) | (not set) | 38.988933951942 | -76.93007107893 | 0.4083 | 2026-01-08 16:52:33 | on_foot | 100 | 0.66161810330183 | |
| 71404 | 260108_789002_16657758_1639 | 789002 | (not set) | (not set) | 38.898231113506 | -77.078915424955 | 1.8342 | 2026-01-08 16:52:41 | on_bicycle | 100 | 1.4886407324291 | |
| 71405 | 260108_773521_16640875_1548 | 773521 | (not set) | (not set) | 38.935238602347 | -78.055395896527 | 55.7449 | 2026-01-08 16:52:53 | in_vehicle | 100 | 8.1674072617057 | |
| 71406 | 260108_790203_16659191_1622 | 790203 | (not set) | (not set) | 38.951187422535 | -76.973057566282 | 7.0311 | 2026-01-08 16:52:59 | in_vehicle | 100 | 9.7365150607526 | |
| 71407 | 260108_789659_16658546_1633 | 789659 | (not set) | (not set) | 39.137106568733 | -77.154692343061 | 11.353 | 2026-01-08 16:53:11 | in_vehicle | 100 | 10.970343415559 | |
| 71408 | 260108_788537_16657182_1644 | 788537 | (not set) | (not set) | 39.294657557554 | -76.609484552871 | 1.1831 | 2026-01-08 16:53:16 | in_vehicle | 100 | 5.3287079671337 | |
| 71409 | 260108_769852_16636925_1619 | 769852 | (not set) | (not set) | 38.961254656299 | -77.085197520677 | 4.7151 | 2026-01-08 16:53:27 | still | 33 | -0.44703925898772 | |
| 71410 | 260108_769852_16636925_1619 | 769852 | (not set) | (not set) | 38.961254656299 | -77.085197520677 | 4.7151 | 2026-01-08 16:53:27 | still | 33 | -0.44703925898772 | |
| 71411 | 260108_789454_16658317_1650 | 789454 | (not set) | (not set) | 39.149949591711 | -76.896537229281 | 1.1998 | 2026-01-08 16:53:40 | in_vehicle | 100 | 11.193863045053 | |
| 71412 | 260108_789453_16658316_1646 | 789453 | (not set) | (not set) | 39.147537228725 | -76.898830527802 | 2.3426 | 2026-01-08 16:53:53 | in_vehicle | 100 | 10.648475149088 | |
| 71413 | 260108_789714_6455647_1648 | 789714 | (not set) | (not set) | 38.989466385661 | -76.932886369522 | 0.5657 | 2026-01-08 16:54:03 | running | 100 | 0.88066734020582 | |
| 71414 | 260108_785447_16655759_1604 | 785447 | (not set) | (not set) | 39.286017928707 | -76.667315201486 | 35.5384 | 2026-01-08 16:54:14 | in_vehicle | 100 | 7.4387332695557 | |
| 71415 | 260108_785447_16655759_1604 | 785447 | (not set) | (not set) | 39.287000015122 | -76.665370203599 | 35.6627 | 2026-01-08 16:54:26 | in_vehicle | 100 | 7.7874238915662 | |
| 71416 | 260108_787157_16657928_1638 | 787157 | (not set) | (not set) | 38.951827593715 | -76.997906695475 | 3.9599 | 2026-01-08 16:54:32 | in_vehicle | 100 | -0.44703925898772 | |
| 71417 | 260108_791089_16660195_1601 | 791089 | (not set) | (not set) | 38.991820696434 | -77.036108293296 | 6.7227 | 2026-01-08 16:54:46 | still | 33 | 0 | |
| 71418 | 260108_775339_16651697_1644 | 775339 | (not set) | (not set) | 38.896241916813 | -77.043562341226 | 0.1967 | 2026-01-08 16:54:57 | still | 33 | 0 | |
| 71419 | 260108_789454_16658317_1650 | 789454 | (not set) | (not set) | 39.144625086306 | -76.89820081505 | 2.0256 | 2026-01-08 16:55:09 | in_vehicle | 100 | 3.312560909099 | |
| 71420 | 260108_785447_16655759_1604 | 785447 | (not set) | (not set) | 39.29125263071 | -76.656779553185 | 36.2238 | 2026-01-08 16:55:22 | in_vehicle | 100 | 5.5969315225263 |